Time;durP1;ratioP1;P1;durP2;ratioP2;P2;SDS_P1;SDS_P2;PMS_P1;PMS_P2;Temp;Humidity;BMP_temperature;BMP_pressure;BME280_temperature;BME280_humidity;BME280_pressure;Samples;Min_cycle;Max_cycle;Signal;HPM_P1;HPM_P2
2022/08/08 06:39:01;;;;;;;13.13;2.58;;;;;;;17.88;47.34;97084.41;2090598;28;20547;-60
2022/08/08 06:40:10;;;;;;;35.78;2.30;;;;;;;17.93;46.79;97084.13;2087332;28;20216;-60
2022/08/08 06:41:18;;;;;;;16.50;1.30;;;;;;;18.09;46.85;97082.16;2084735;28;20726;-61
2022/08/08 06:42:22;;;;;;;21.70;2.22;;;;;;;18.08;46.38;97085.75;2082862;28;20224;-61
2022/08/08 06:59:47;;;;;;;7.10;1.00;;;;;;;19.40;45.46;97095.03;2086337;28;21258;-61
2022/08/08 07:01:12;;;;;;;8.93;2.22;;;;;;;19.59;45.02;97091.88;2078715;28;20244;-61
2022/08/08 07:02:35;;;;;;;7.28;1.10;;;;;;;19.34;45.14;97099.00;2072469;28;20193;-61
2022/08/08 07:04:03;;;;;;;6.28;1.25;;;;;;;19.60;45.08;97095.41;2073278;28;20206;-61
2022/08/08 07:21:06;;;;;;;4.82;1.58;;;;;;;20.85;44.14;97102.66;2083210;28;20560;-61
2022/08/08 07:22:36;;;;;;;7.60;1.77;;;;;;;21.00;44.25;97100.63;2079043;28;20274;-61
2022/08/08 07:24:04;;;;;;;7.00;1.20;;;;;;;21.02;44.12;97106.63;2079127;28;20239;-61
2022/08/08 07:25:10;;;;;;;4.70;1.88;;;;;;;21.30;43.20;97107.06;2080020;28;20193;-61
2022/08/08 07:40:15;;;;;;;5.82;1.60;;;;;;;22.74;42.54;97111.09;2090914;28;20577;-61
2022/08/08 07:41:36;;;;;;;18.17;2.17;;;;;;;22.86;42.46;97111.84;2080016;28;20278;-62
2022/08/08 07:43:00;;;;;;;4.28;1.70;;;;;;;22.83;43.14;97107.63;2074170;28;20206;-62
2022/08/08 07:44:04;;;;;;;14.18;2.42;;;;;;;22.52;44.05;97106.78;2074149;28;20205;-62
2022/08/08 07:45:26;;;;;;;2.90;1.50;;;;;;;22.50;44.42;97112.25;2076528;28;20239;-62
2022/08/08 08:01:58;;;;;;;2.60;1.35;;;;;;;22.85;42.74;97120.81;2091102;28;20556;-62
2022/08/08 08:03:29;;;;;;;3.38;1.45;;;;;;;22.96;42.55;97111.88;2086175;28;20235;-62
2022/08/08 08:04:45;;;;;;;15.95;1.83;;;;;;;23.20;42.51;97119.56;2087699;28;20275;-62
2022/08/08 08:05:52;;;;;;;8.45;1.67;;;;;;;23.42;41.91;97122.97;2086610;28;20330;-62
2022/08/08 08:06:57;;;;;;;2.28;1.10;;;;;;;23.72;41.61;97122.03;2079551;28;20212;-62
2022/08/08 08:08:04;;;;;;;5.57;1.33;;;;;;;23.80;41.51;97129.31;2078663;28;20201;-62
2022/08/08 08:09:18;;;;;;;5.90;1.40;;;;;;;24.03;41.21;97124.56;2078105;28;20193;-62
2022/08/08 08:26:12;;;;;;;3.00;1.35;;;;;;;24.60;39.62;97139.78;2088603;28;20561;-61
2022/08/08 08:27:27;;;;;;;2.03;1.15;;;;;;;24.42;39.83;97129.03;2074506;28;20188;-62
2022/08/08 08:28:30;;;;;;;3.38;1.55;;;;;;;24.88;38.56;97132.69;2078464;28;20201;-61
2022/08/08 08:29:32;;;;;;;4.28;1.40;;;;;;;24.67;39.24;97119.56;2079233;28;20247;-62
2022/08/08 08:30:37;;;;;;;4.95;1.13;;;;;;;25.05;38.26;97124.88;2073672;28;20611;-62
2022/08/08 08:31:39;;;;;;;7.10;1.10;;;;;;;25.34;38.05;97122.03;2073663;28;20249;-62
2022/08/08 08:32:42;;;;;;;3.55;1.25;;;;;;;25.73;37.70;97126.34;2078923;28;20194;-62
2022/08/08 08:33:52;;;;;;;2.30;1.00;;;;;;;25.95;37.33;97132.22;2077764;28;20201;-61
2022/08/08 08:34:53;;;;;;;2.38;1.38;;;;;;;26.14;36.87;97132.06;2079153;28;20201;-62
2022/08/08 08:52:44;;;;;;;10.18;1.55;;;;;;;25.70;36.89;97140.84;2090323;28;20586;-61
2022/08/08 08:54:01;;;;;;;3.63;1.70;;;;;;;25.89;36.45;97133.66;2088864;28;21063;-62
2022/08/08 08:55:04;;;;;;;6.05;1.48;;;;;;;25.27;37.46;97129.84;2088232;28;20196;-62
2022/08/08 08:56:06;;;;;;;7.13;2.35;;;;;;;24.73;38.67;97129.63;2089383;27;20207;-62
2022/08/08 08:57:09;;;;;;;5.40;1.80;;;;;;;25.16;38.00;97137.22;2081332;28;20730;-62
2022/08/08 08:58:31;;;;;;;11.30;1.70;;;;;;;25.29;37.39;97131.53;2083500;28;20197;-62
2022/08/08 08:59:39;;;;;;;3.05;1.55;;;;;;;25.49;37.12;97132.28;2080645;28;20203;-62
2022/08/08 09:01:03;;;;;;;3.65;1.70;;;;;;;25.61;36.40;97133.75;2079608;28;20211;-62
2022/08/08 09:02:19;;;;;;;10.52;1.58;;;;;;;25.05;37.32;97132.91;2076219;28;20645;-62
2022/08/08 09:03:23;;;;;;;4.22;1.60;;;;;;;25.57;36.49;97129.69;2073042;28;20209;-63
2022/08/08 09:21:47;;;;;;;5.22;1.20;;;;;;;27.62;31.83;97128.56;2083732;27;20576;-61
2022/08/08 09:23:06;;;;;;;2.85;1.25;;;;;;;27.79;31.43;97135.59;2079116;28;20225;-62
2022/08/08 09:24:14;;;;;;;4.30;1.35;;;;;;;27.98;31.82;97142.50;2079228;28;20286;-62
2022/08/08 09:25:18;;;;;;;2.95;1.40;;;;;;;26.91;33.44;97133.28;2079500;28;20262;-62
2022/08/08 09:26:56;;;;;;;6.07;1.60;;;;;;;27.20;33.30;97138.28;2077387;28;20688;-62
2022/08/08 09:28:00;;;;;;;4.20;1.42;;;;;;;27.68;32.87;97141.28;2077467;28;20259;-62
2022/08/08 09:29:05;;;;;;;2.50;1.08;;;;;;;28.08;31.91;97123.59;2079275;28;20204;-62
2022/08/08 09:30:13;;;;;;;4.90;1.40;;;;;;;27.77;30.69;97144.81;2078762;28;20648;-62
2022/08/08 09:31:50;;;;;;;12.73;1.27;;;;;;;28.00;30.42;97135.13;2077364;28;20247;-61
2022/08/08 09:32:58;;;;;;;52.13;2.70;;;;;;;27.07;31.15;97136.06;2084689;28;20686;-62
2022/08/08 09:34:22;;;;;;;1.70;0.90;;;;;;;27.43;31.08;97137.72;2082359;28;20209;-62
2022/08/08 09:35:37;;;;;;;2.50;1.10;;;;;;;27.99;31.31;97138.81;2078714;28;20197;-62
2022/08/08 09:36:59;;;;;;;2.65;1.20;;;;;;;27.17;32.21;97143.94;2070288;28;20367;-63
2022/08/08 09:38:53;;;;;;;3.78;1.05;;;;;;;26.02;33.54;97134.13;2071160;28;20206;-63
2022/08/08 09:57:36;;;;;;;2.28;0.93;;;;;;;28.74;29.53;97130.75;2083651;28;20562;-61
2022/08/08 09:58:54;;;;;;;3.65;1.20;;;;;;;29.06;29.01;97135.19;2078334;28;20200;-62
2022/08/08 09:59:59;;;;;;;3.67;0.95;;;;;;;28.25;29.46;97132.50;2076084;28;20267;-62
2022/08/08 10:01:22;;;;;;;1.88;1.10;;;;;;;26.80;31.16;97129.88;2073986;28;20221;-62
2022/08/08 10:02:51;;;;;;;2.40;1.13;;;;;;;26.50;31.60;97128.47;2067937;28;20202;-62
2022/08/08 10:03:56;;;;;;;1.60;0.85;;;;;;;26.23;31.57;97106.22;2067686;28;20373;-61
2022/08/08 10:05:03;;;;;;;4.60;1.55;;;;;;;26.39;31.93;97135.78;2066149;28;20205;-62
2022/08/08 10:06:17;;;;;;;2.53;1.25;;;;;;;26.28;30.59;97130.66;2065558;28;20222;-61
2022/08/08 10:07:19;;;;;;;6.97;1.13;;;;;;;27.43;29.72;97132.34;2066603;28;20198;-62
2022/08/08 10:08:20;;;;;;;3.15;1.10;;;;;;;28.13;28.95;97126.59;2068838;28;20542;-63
2022/08/08 10:09:30;;;;;;;2.35;0.90;;;;;;;28.62;29.00;97125.72;2068259;28;20194;-62
2022/08/08 10:10:37;;;;;;;2.85;0.85;;;;;;;27.08;30.33;97134.19;2068942;28;20662;-62
2022/08/08 10:11:47;;;;;;;2.05;0.95;;;;;;;28.13;29.78;97117.72;2067829;28;20241;-61
2022/08/08 10:13:19;;;;;;;4.60;1.00;;;;;;;28.95;28.48;97125.66;2068545;28;20245;-62
2022/08/08 10:14:33;;;;;;;3.75;1.00;;;;;;;29.37;27.62;97122.81;2070208;28;20281;-62
2022/08/08 10:15:40;;;;;;;3.55;1.00;;;;;;;29.75;27.68;97125.63;2070535;28;20644;-62
2022/08/08 10:17:08;;;;;;;8.45;1.58;;;;;;;29.06;27.61;97131.66;2068091;28;20268;-62
2022/08/08 10:18:33;;;;;;;1.35;0.70;;;;;;;29.49;27.58;97132.16;2070171;28;20212;-62
2022/08/08 10:19:38;;;;;;;2.53;0.88;;;;;;;28.33;27.66;97131.63;2070662;28;20202;-62
2022/08/08 10:21:15;;;;;;;1.83;0.80;;;;;;;27.59;28.37;97132.41;2068352;28;20201;-63
2022/08/08 10:41:03;;;;;;;3.33;1.05;;;;;;;26.86;31.21;97125.72;2084693;28;20886;-65
2022/08/08 10:42:06;;;;;;;1.92;1.10;;;;;;;27.27;31.00;97117.00;2078068;28;20237;-64
2022/08/08 10:43:17;;;;;;;1.90;0.88;;;;;;;27.00;31.43;97109.03;2077206;28;20543;-64
2022/08/08 10:44:28;;;;;;;2.47;0.90;;;;;;;27.85;29.67;97124.19;2078454;28;20859;-62
2022/08/08 10:45:41;;;;;;;2.70;1.13;;;;;;;27.59;29.88;97123.50;2077296;28;20196;-61
2022/08/08 10:47:14;;;;;;;7.32;1.88;;;;;;;27.90;29.86;97120.22;2075992;28;20213;-62
2022/08/08 10:48:33;;;;;;;1.95;0.93;;;;;;;28.24;29.76;97117.38;2076101;28;20203;-62
2022/08/08 10:50:03;;;;;;;4.57;1.10;;;;;;;29.35;28.67;97125.69;2078788;28;20201;-62
2022/08/08 10:51:12;;;;;;;2.85;0.95;;;;;;;29.44;28.24;97127.31;2077297;28;20204;-62
2022/08/08 10:52:33;;;;;;;10.07;1.00;;;;;;;28.50;29.07;97119.03;2077894;28;20232;-62
2022/08/08 10:53:37;;;;;;;3.90;1.40;;;;;;;28.25;29.65;97126.25;2078364;28;20197;-62
2022/08/08 10:55:12;;;;;;;7.45;1.27;;;;;;;28.58;29.41;97115.47;2077533;28;20209;-62
2022/08/08 10:56:16;;;;;;;1.80;0.93;;;;;;;28.32;30.26;97124.59;2076444;28;20707;-62
2022/08/08 10:57:46;;;;;;;1.75;1.00;;;;;;;28.29;29.90;97111.47;2078868;28;20776;-62
2022/08/08 10:59:03;;;;;;;2.10;1.20;;;;;;;28.47;30.02;97120.19;2075599;28;20208;-62
2022/08/08 11:00:09;;;;;;;4.82;1.17;;;;;;;29.05;28.57;97122.78;2074896;28;20197;-62
2022/08/08 11:01:13;;;;;;;2.10;1.10;;;;;;;28.37;29.46;97111.50;2076780;28;20238;-62
2022/08/08 11:02:22;;;;;;;2.05;1.25;;;;;;;27.28;31.36;97116.03;2077895;28;20205;-62
2022/08/08 11:03:27;;;;;;;2.03;1.10;;;;;;;28.22;30.63;97113.19;2075928;28;20684;-62
2022/08/08 11:04:48;;;;;;;6.90;1.30;;;;;;;28.56;30.62;97112.16;2074551;28;20698;-62
2022/08/08 11:17:28;;;;;;;2.58;1.15;;;;;;;28.09;30.47;97105.66;2094723;27;20574;-62
2022/08/08 11:18:50;;;;;;;3.63;1.15;;;;;;;27.86;29.86;97107.09;2091050;28;20257;-62
2022/08/08 11:19:52;;;;;;;4.20;0.98;;;;;;;27.68;29.23;97104.59;2092671;28;20227;-62
2022/08/08 11:20:54;;;;;;;5.43;1.40;;;;;;;28.27;29.52;97100.94;2090346;28;20195;-61
2022/08/08 11:21:58;;;;;;;2.75;1.10;;;;;;;27.51;30.50;97108.22;2068973;28;20285;-62
2022/08/08 11:23:01;;;;;;;2.30;1.45;;;;;;;28.40;29.91;97096.88;2071790;28;20205;-62
2022/08/08 11:24:08;;;;;;;5.53;1.02;;;;;;;29.80;28.68;97105.25;2074708;28;20201;-62
2022/08/08 11:25:12;;;;;;;1.80;1.10;;;;;;;28.46;30.00;97099.72;2073110;28;20346;-62
2022/08/08 11:26:16;;;;;;;4.47;1.42;;;;;;;29.21;29.73;97097.66;2074224;28;20241;-62
2022/08/08 11:27:25;;;;;;;2.00;0.93;;;;;;;30.43;27.62;97102.38;2068677;28;20251;-62
2022/08/08 11:28:39;;;;;;;4.57;0.93;;;;;;;31.35;26.52;97094.13;2075658;28;20205;-63
2022/08/08 11:29:45;;;;;;;1.65;1.05;;;;;;;31.73;26.13;97096.66;2076275;28;20201;-61
2022/08/08 11:31:07;;;;;;;3.47;1.25;;;;;;;30.22;26.91;97097.72;2072687;28;20221;-63
2022/08/08 11:32:12;;;;;;;1.50;0.80;;;;;;;29.08;28.29;97095.53;2068422;28;20198;-62
2022/08/08 11:33:17;;;;;;;8.85;1.25;;;;;;;29.07;28.68;97103.78;2067367;28;20202;-62
2022/08/08 11:34:23;;;;;;;2.03;1.00;;;;;;;29.64;27.67;97095.41;2063457;28;20646;-62
2022/08/08 11:35:38;;;;;;;13.82;1.92;;;;;;;29.51;28.43;97095.19;2065185;28;20626;-62
2022/08/08 11:36:43;;;;;;;10.73;1.63;;;;;;;28.89;29.61;97101.34;2064482;28;20263;-62
2022/08/08 11:37:51;;;;;;;14.98;1.88;;;;;;;29.79;28.57;97092.81;2067515;28;20561;-62
2022/08/08 11:39:16;;;;;;;5.18;1.40;;;;;;;29.30;28.93;97095.81;2062080;28;20238;-62
2022/08/08 11:40:20;;;;;;;2.55;1.15;;;;;;;30.63;27.37;97099.19;2059493;28;20290;-62
2022/08/08 11:41:28;;;;;;;2.42;1.13;;;;;;;30.73;27.41;97105.13;2055640;28;20245;-63
2022/08/08 11:42:34;;;;;;;1.48;1.05;;;;;;;28.44;29.89;97093.69;2064199;28;20557;-62
2022/08/08 11:43:37;;;;;;;1.95;1.15;;;;;;;27.76;30.72;97089.50;2064992;28;20812;-62
2022/08/08 11:44:40;;;;;;;3.75;1.10;;;;;;;28.21;29.64;97092.72;2064843;28;20509;-62
2022/08/08 11:45:43;;;;;;;5.30;1.42;;;;;;;28.58;29.53;97091.31;2068488;28;20202;-62
2022/08/08 11:47:05;;;;;;;9.48;1.98;;;;;;;28.58;29.01;97091.31;2076614;28;20217;-62
2022/08/08 11:48:18;;;;;;;10.63;1.23;;;;;;;27.99;29.98;97085.13;2074523;28;20235;-62
2022/08/08 11:49:22;;;;;;;3.78;1.10;;;;;;;29.38;28.45;97090.41;2074468;28;20201;-62
2022/08/08 11:50:24;;;;;;;1.73;1.10;;;;;;;30.77;27.50;97097.53;2068733;28;20189;-62
2022/08/08 11:51:31;;;;;;;2.90;1.20;;;;;;;31.45;26.28;97091.97;2070099;28;20217;-62
2022/08/08 11:52:41;;;;;;;4.03;1.20;;;;;;;31.89;25.84;97087.47;2076954;28;20201;-62
2022/08/08 11:53:50;;;;;;;2.05;1.15;;;;;;;31.02;26.14;97091.81;2069829;28;20198;-62
2022/08/08 11:55:26;;;;;;;3.03;1.15;;;;;;;31.62;25.80;97087.19;2071182;28;20673;-63
2022/08/08 11:56:33;;;;;;;1.90;0.97;;;;;;;31.06;26.73;97088.59;2070437;28;20587;-62
2022/08/08 11:57:35;;;;;;;3.20;1.13;;;;;;;31.64;26.62;97087.84;2072201;28;20498;-62
2022/08/08 11:58:36;;;;;;;2.00;1.00;;;;;;;31.89;25.98;97082.06;2072003;28;20424;-62
2022/08/08 11:59:43;;;;;;;2.73;0.90;;;;;;;31.67;26.34;97083.91;2072752;28;20873;-63
2022/08/08 12:01:04;;;;;;;1.60;1.10;;;;;;;31.41;26.16;97083.44;2073760;28;20437;-63
2022/08/08 12:02:16;;;;;;;1.53;0.90;;;;;;;32.46;25.47;97087.56;2074368;28;20422;-63
2022/08/08 12:03:45;;;;;;;3.90;1.03;;;;;;;33.21;24.23;97085.06;2069822;28;20426;-63
2022/08/08 12:04:47;;;;;;;2.00;1.00;;;;;;;33.52;23.80;97083.72;2070999;28;20526;-62
2022/08/08 12:05:50;;;;;;;1.73;0.90;;;;;;;31.95;24.54;97086.69;2070689;28;20439;-63
2022/08/08 12:07:02;;;;;;;1.93;1.00;;;;;;;32.23;24.81;97072.41;2073126;28;20438;-63
2022/08/08 12:08:04;;;;;;;4.17;2.53;;;;;;;31.29;25.49;97089.50;2073437;28;20437;-62
2022/08/08 12:09:07;;;;;;;5.73;1.33;;;;;;;31.78;24.65;97078.00;2070670;28;21024;-63
2022/08/08 12:10:13;;;;;;;4.03;2.33;;;;;;;31.87;24.80;97074.16;2072702;28;20454;-62
2022/08/08 12:11:20;;;;;;;23.67;15.20;;;;;;;32.02;25.07;97076.81;2074137;28;20488;-62
2022/08/08 12:12:34;;;;;;;2.20;1.50;;;;;;;32.05;25.70;97067.47;2071726;28;20488;-62
2022/08/08 12:28:13;;;;;;;11.93;1.47;;;;;;;33.21;24.21;97076.97;2085880;28;20568;-62
2022/08/08 12:29:23;;;;;;;2.33;1.10;;;;;;;33.69;23.81;97070.69;2079118;28;20446;-61
2022/08/08 12:30:44;;;;;;;2.27;1.07;;;;;;;33.97;23.04;97073.22;2079196;28;20820;-62
2022/08/08 12:32:13;;;;;;;5.70;1.57;;;;;;;32.79;23.74;97068.84;2078817;28;20499;-62
2022/08/08 12:33:25;;;;;;;9.53;1.10;;;;;;;32.08;24.83;97065.19;2078719;28;20422;-62
2022/08/08 12:34:48;;;;;;;1.33;0.90;;;;;;;32.88;23.66;97064.13;2077847;28;20441;-62
2022/08/08 12:35:50;;;;;;;4.30;0.80;;;;;;;32.51;24.28;97060.78;2078856;28;20426;-62
2022/08/08 12:37:04;;;;;;;1.30;0.93;;;;;;;31.88;24.90;97050.69;2079239;28;20426;-62
2022/08/08 12:38:08;;;;;;;3.23;0.90;;;;;;;33.00;24.62;97069.78;2079022;28;20418;-61
2022/08/08 12:39:26;;;;;;;1.37;0.90;;;;;;;32.68;24.51;97059.44;2078743;28;20429;-62
2022/08/08 12:40:51;;;;;;;6.83;1.57;;;;;;;31.67;25.10;97062.31;2078183;28;20419;-62
2022/08/08 12:42:00;;;;;;;3.00;1.20;;;;;;;33.05;24.61;97064.59;2079025;28;20446;-61
2022/08/08 12:43:05;;;;;;;1.67;1.10;;;;;;;33.49;23.45;97062.50;2079040;28;20422;-61
2022/08/08 12:44:12;;;;;;;1.30;0.80;;;;;;;34.08;23.22;97068.22;2078541;28;20431;-62
2022/08/08 12:45:14;;;;;;;3.40;1.17;;;;;;;34.39;22.76;97066.81;2078684;28;20434;-62
2022/08/08 12:46:36;;;;;;;3.40;1.20;;;;;;;34.42;22.36;97071.78;2078174;28;20899;-62
2022/08/08 12:47:38;;;;;;;1.73;0.90;;;;;;;34.60;22.13;97069.28;2078085;28;20462;-62
2022/08/08 12:49:04;;;;;;;2.07;0.80;;;;;;;34.76;22.36;97067.13;2078742;28;20468;-62
2022/08/08 12:50:37;;;;;;;2.73;0.83;;;;;;;33.80;22.60;97058.38;2078744;28;20450;-62
2022/08/08 12:51:40;;;;;;;2.33;1.07;;;;;;;34.31;22.66;97063.22;2078627;28;20458;-62
2022/08/08 12:52:54;;;;;;;3.20;1.00;;;;;;;34.81;22.11;97062.72;2078939;28;20477;-62
2022/08/08 12:54:00;;;;;;;2.50;0.83;;;;;;;32.43;23.35;97055.50;2078866;28;20492;-62
2022/08/08 12:55:11;;;;;;;3.77;1.20;;;;;;;32.26;24.49;97057.69;2078179;28;20434;-61
2022/08/08 12:56:17;;;;;;;9.13;1.00;;;;;;;33.58;23.06;97063.97;2078201;28;20512;-62
2022/08/08 12:57:24;;;;;;;2.30;0.90;;;;;;;34.42;22.43;97063.66;2078756;28;20439;-62
2022/08/08 12:58:28;;;;;;;2.03;0.90;;;;;;;32.12;23.84;97065.66;2078918;28;20427;-62
2022/08/08 12:59:30;;;;;;;5.47;1.00;;;;;;;32.14;24.08;97052.78;2078969;28;20913;-62
2022/08/08 13:00:53;;;;;;;1.73;0.87;;;;;;;30.81;25.11;97055.69;2075738;28;20960;-62
2022/08/08 13:01:59;;;;;;;4.80;1.10;;;;;;;29.71;26.83;97055.22;2078352;28;20433;-61
2022/08/08 13:03:02;;;;;;;9.70;1.17;;;;;;;31.26;25.40;97056.50;2078273;28;21196;-61
2022/08/08 13:04:16;;;;;;;2.53;1.00;;;;;;;31.61;24.63;97055.00;2078266;28;20539;-61
2022/08/08 13:05:24;;;;;;;1.93;1.10;;;;;;;30.06;26.61;97055.59;2078795;28;20427;-61
2022/08/08 13:06:57;;;;;;;10.50;1.77;;;;;;;30.04;26.68;97056.81;2078195;28;20478;-62
2022/08/08 13:08:16;;;;;;;3.50;1.10;;;;;;;31.51;25.05;97056.13;2078214;28;20559;-61
2022/08/08 13:09:32;;;;;;;1.53;0.90;;;;;;;31.03;25.70;97055.75;2078482;28;20846;-61
2022/08/08 13:10:54;;;;;;;5.43;1.03;;;;;;;30.99;26.01;97060.69;2077478;28;20427;-62
2022/08/08 13:11:59;;;;;;;4.40;1.00;;;;;;;31.29;25.32;97049.88;2079067;28;20484;-62
2022/08/08 13:13:32;;;;;;;3.17;1.10;;;;;;;32.38;24.60;97056.13;2078266;28;20466;-62
2022/08/08 13:14:38;;;;;;;3.00;1.10;;;;;;;33.09;24.24;97060.50;2078828;28;20503;-62
2022/08/08 13:15:54;;;;;;;1.77;1.10;;;;;;;34.05;23.05;97063.25;2078510;28;20462;-61
2022/08/08 13:16:57;;;;;;;2.10;1.00;;;;;;;32.15;24.36;97043.66;2078466;28;20928;-62
2022/08/08 13:17:59;;;;;;;3.03;1.13;;;;;;;33.19;24.26;97060.09;2076947;28;20454;-61
2022/08/08 13:19:14;;;;;;;1.47;0.90;;;;;;;30.49;25.85;97054.19;2078256;28;20430;-62
2022/08/08 13:20:22;;;;;;;4.00;1.10;;;;;;;29.87;26.58;97051.53;2078217;28;20495;-61
2022/08/08 13:21:27;;;;;;;2.10;1.00;;;;;;;32.03;25.00;97042.53;2078357;28;20466;-62
2022/08/08 13:22:49;;;;;;;1.83;1.13;;;;;;;32.65;24.28;97051.69;2078441;28;20438;-62
2022/08/08 13:23:59;;;;;;;1.67;1.00;;;;;;;33.05;24.09;97051.94;2079080;28;20784;-62
2022/08/08 13:25:02;;;;;;;4.83;1.30;;;;;;;33.48;23.35;97050.84;2078851;28;20431;-61
2022/08/08 13:26:07;;;;;;;1.93;0.90;;;;;;;33.01;23.64;97047.13;2078138;28;20433;-63
2022/08/08 13:27:18;;;;;;;3.50;0.87;;;;;;;34.01;22.78;97060.09;2079037;28;20433;-62
2022/08/08 13:28:27;;;;;;;1.40;0.90;;;;;;;34.53;22.56;97056.78;2078879;28;20786;-61
2022/08/08 13:29:34;;;;;;;3.77;1.13;;;;;;;34.93;22.09;97056.69;2078843;28;20928;-62
2022/08/08 13:30:42;;;;;;;1.67;0.90;;;;;;;34.86;22.00;97053.19;2077629;28;20435;-63
2022/08/08 13:31:50;;;;;;;1.10;0.80;;;;;;;34.22;22.34;97056.38;2077974;28;20525;-69
2022/08/08 13:32:56;;;;;;;1.50;0.93;;;;;;;33.29;22.99;97038.09;2078368;28;20431;-69
2022/08/08 13:33:58;;;;;;;2.33;0.90;;;;;;;33.96;22.76;97058.00;2078214;28;20802;-69
2022/08/08 13:35:09;;;;;;;2.30;1.00;;;;;;;34.79;22.08;97056.72;2078332;28;20889;-69
2022/08/08 13:36:25;;;;;;;1.70;1.00;;;;;;;35.20;21.59;97051.97;2077195;28;20469;-69
2022/08/08 13:37:31;;;;;;;3.07;1.10;;;;;;;34.96;21.37;97042.69;2078563;28;20434;-69
2022/08/08 14:00:54;;;;;;;1.57;0.80;;;;;;;35.17;21.53;97029.88;2084941;28;20579;-68
2022/08/08 14:01:56;;;;;;;2.90;1.00;;;;;;;35.43;21.15;97021.63;2079429;28;20418;-71
2022/08/08 14:03:03;;;;;;;1.70;1.00;;;;;;;35.82;20.98;97029.72;2078859;28;20434;-70
2022/08/08 14:04:24;;;;;;;2.03;0.80;;;;;;;34.14;21.82;97026.75;2079268;28;20917;-70
2022/08/08 14:05:32;;;;;;;2.00;0.97;;;;;;;33.23;22.95;97023.50;2078772;28;20848;-70
2022/08/08 14:06:43;;;;;;;1.47;0.83;;;;;;;34.59;22.22;97026.94;2075858;28;20465;-70
2022/08/08 14:07:48;;;;;;;1.47;1.00;;;;;;;33.01;22.98;97030.91;2077674;28;20820;-71
2022/08/08 14:08:54;;;;;;;1.20;0.80;;;;;;;33.89;22.44;97023.84;2079151;28;20437;-70
2022/08/08 14:10:03;;;;;;;1.30;1.00;;;;;;;32.88;22.72;97021.69;2079393;28;20513;-70
2022/08/08 14:11:18;;;;;;;1.67;1.13;;;;;;;31.49;23.92;97016.88;2078404;28;20822;-70
2022/08/08 14:12:31;;;;;;;2.90;1.00;;;;;;;30.24;25.05;97022.13;2079069;28;20442;-70
2022/08/08 14:13:34;;;;;;;1.73;1.10;;;;;;;30.39;25.12;97014.88;2078540;28;20509;-70
2022/08/08 14:14:55;;;;;;;2.60;1.20;;;;;;;30.74;25.02;97020.59;2081421;28;20429;-70
2022/08/08 14:16:02;;;;;;;2.13;1.00;;;;;;;30.18;25.71;97017.47;2080372;28;20449;-70
2022/08/08 14:17:05;;;;;;;5.37;1.47;;;;;;;30.30;25.48;97003.38;2079091;28;21108;-71
2022/08/08 14:18:07;;;;;;;1.40;0.70;;;;;;;29.29;26.34;97018.84;2079267;28;20426;-70
2022/08/08 14:19:30;;;;;;;2.10;1.00;;;;;;;29.54;26.02;97008.75;2079247;28;20431;-69
2022/08/08 14:21:01;;;;;;;1.83;1.03;;;;;;;29.72;26.38;97012.97;2078525;28;20520;-69
2022/08/08 14:22:38;;;;;;;1.70;1.00;;;;;;;31.02;24.73;97006.41;2078809;28;20504;-70
2022/08/08 14:23:45;;;;;;;2.17;1.17;;;;;;;30.15;25.71;97017.84;2078618;28;20442;-71
2022/08/08 14:25:08;;;;;;;1.77;0.80;;;;;;;31.15;24.41;97013.84;2079327;28;20933;-72
2022/08/08 14:26:23;;;;;;;2.03;1.00;;;;;;;30.30;25.14;97011.44;2078801;28;20778;-72
2022/08/08 14:27:37;;;;;;;2.00;0.93;;;;;;;30.04;25.63;97009.19;2079079;28;20479;-71
2022/08/08 14:28:50;;;;;;;1.70;1.10;;;;;;;30.54;25.42;97006.84;2077779;28;20526;-72
2022/08/08 14:29:57;;;;;;;4.45;0.93;;;;;;;30.51;25.20;96999.13;2079200;28;21338;-72
2022/08/08 14:31:09;;;;;;;2.33;0.90;;;;;;;30.08;26.17;97015.03;2078918;28;20193;-71
2022/08/08 14:32:10;;;;;;;2.33;0.80;;;;;;;29.95;26.12;97007.59;2078810;28;20457;-72
2022/08/08 14:33:29;;;;;;;1.37;0.80;;;;;;;31.15;24.52;97004.91;2078246;28;20437;-71
2022/08/08 14:34:36;;;;;;;2.97;1.10;;;;;;;32.62;23.47;97005.31;2079182;28;20445;-72
2022/08/08 14:35:40;;;;;;;1.57;0.97;;;;;;;32.72;23.65;97012.03;2078488;28;20437;-72
2022/08/08 14:36:47;;;;;;;2.83;1.27;;;;;;;33.43;23.05;97003.78;2078687;28;20454;-70
2022/08/08 14:37:59;;;;;;;5.50;0.97;;;;;;;33.76;22.32;97005.69;2078136;28;20430;-70
2022/08/08 14:39:08;;;;;;;6.70;1.00;;;;;;;34.32;21.96;97013.41;2078872;28;20917;-70
2022/08/08 14:40:21;;;;;;;1.47;0.80;;;;;;;34.36;21.54;97007.59;2077963;28;20430;-70
2022/08/08 14:41:24;;;;;;;2.27;1.20;;;;;;;34.79;21.40;97004.34;2078579;28;20458;-70
2022/08/08 14:42:49;;;;;;;2.43;1.03;;;;;;;34.03;21.39;97009.28;2078671;28;20454;-70
2022/08/08 14:43:58;;;;;;;1.77;1.07;;;;;;;34.47;21.20;97015.06;2078341;28;20434;-70
2022/08/08 14:45:13;;;;;;;4.73;1.73;;;;;;;34.08;21.84;97016.75;2079170;28;20461;-70
2022/08/08 14:46:23;;;;;;;1.30;0.80;;;;;;;33.05;22.43;97014.06;2077082;28;20462;-70
2022/08/08 14:47:59;;;;;;;3.40;1.30;;;;;;;31.12;24.53;97002.59;2079138;28;20797;-70
2022/08/08 14:49:09;;;;;;;1.40;0.80;;;;;;;31.65;23.71;96992.38;2078528;28;20429;-70
2022/08/08 14:50:33;;;;;;;1.60;0.80;;;;;;;30.54;24.82;96995.25;2078136;28;20435;-70
2022/08/08 14:51:42;;;;;;;2.90;1.00;;;;;;;29.51;26.51;96992.13;2078154;28;20455;-70
2022/08/08 14:52:58;;;;;;;2.93;1.07;;;;;;;30.32;25.06;96991.56;2078997;28;20425;-70
2022/08/08 14:54:02;;;;;;;2.93;1.20;;;;;;;29.91;25.89;96999.03;2079058;28;20431;-70
2022/08/08 14:55:05;;;;;;;5.87;0.90;;;;;;;31.15;24.73;97000.34;2079042;28;20768;-69
2022/08/08 14:56:06;;;;;;;1.20;0.90;;;;;;;31.68;23.85;96988.44;2078020;28;22867;-70
2022/08/08 14:57:10;;;;;;;2.20;1.10;;;;;;;33.20;22.56;97002.25;2078365;28;20514;-70
2022/08/08 14:58:16;;;;;;;1.77;0.90;;;;;;;34.18;21.97;97007.19;2079103;28;20438;-70
2022/08/08 14:59:20;;;;;;;2.83;1.00;;;;;;;34.73;21.25;96997.91;2079182;28;20426;-70
2022/08/08 15:00:42;;;;;;;2.47;1.20;;;;;;;33.97;21.58;97002.00;2078798;28;20467;-70
2022/08/08 15:01:46;;;;;;;3.97;1.67;;;;;;;34.00;21.71;97001.56;2078595;28;20533;-70
2022/08/08 15:02:54;;;;;;;2.03;0.80;;;;;;;35.29;20.95;96999.13;2079148;28;20488;-70
2022/08/08 15:04:02;;;;;;;2.53;1.07;;;;;;;35.39;20.39;96997.84;2078896;28;20433;-70
2022/08/08 15:05:09;;;;;;;1.50;0.90;;;;;;;34.41;21.54;96996.94;2076971;28;20434;-70
2022/08/08 15:06:13;;;;;;;1.90;0.90;;;;;;;35.22;20.62;96998.31;2078907;28;20457;-69
2022/08/08 15:07:17;;;;;;;40.37;24.10;;;;;;;35.72;20.07;96999.47;2079014;28;20430;-69
2022/08/08 15:08:27;;;;;;;6.20;2.57;;;;;;;35.60;20.31;97002.09;2078774;28;20470;-70
2022/08/08 15:09:38;;;;;;;3.73;1.63;;;;;;;35.39;20.62;96995.97;2078359;28;20516;-69
2022/08/08 15:10:40;;;;;;;3.63;1.50;;;;;;;35.63;19.63;96993.47;2078922;28;20431;-69
2022/08/08 15:11:42;;;;;;;3.50;1.13;;;;;;;35.58;20.12;96996.03;2076002;28;20463;-69
2022/08/08 15:12:53;;;;;;;1.73;0.67;;;;;;;36.43;19.59;97000.16;2073529;28;20434;-69
2022/08/08 15:13:55;;;;;;;3.07;1.30;;;;;;;34.66;20.52;97006.06;2072769;28;20519;-69
2022/08/08 15:15:04;;;;;;;1.73;1.00;;;;;;;33.21;22.26;96996.63;2073070;28;20431;-70
2022/08/08 15:16:10;;;;;;;1.10;0.70;;;;;;;33.05;22.20;96995.16;2073105;28;20524;-69
2022/08/08 15:17:15;;;;;;;1.23;0.80;;;;;;;34.58;20.92;96990.03;2073734;28;20427;-69
2022/08/08 15:18:18;;;;;;;3.47;0.90;;;;;;;34.94;20.76;96993.25;2073209;28;20597;-69
2022/08/08 15:19:21;;;;;;;5.10;1.00;;;;;;;34.48;21.56;96992.34;2073076;28;20431;-70
2022/08/08 15:20:28;;;;;;;3.20;0.77;;;;;;;35.15;20.75;97000.25;2073609;28;20427;-70
2022/08/08 15:21:29;;;;;;;1.73;0.83;;;;;;;35.04;20.71;96993.63;2073049;28;20463;-70
2022/08/08 15:22:32;;;;;;;1.53;0.77;;;;;;;35.76;20.32;96993.41;2073573;28;20431;-70
2022/08/08 15:23:38;;;;;;;1.60;0.90;;;;;;;35.40;20.43;96994.94;2073362;28;20431;-70
2022/08/08 15:24:40;;;;;;;1.40;0.73;;;;;;;35.18;20.42;97001.69;2073334;28;21094;-67
2022/08/08 15:25:41;;;;;;;1.60;0.80;;;;;;;35.38;20.35;96998.91;2072672;28;20427;-68
2022/08/08 15:26:44;;;;;;;1.30;0.80;;;;;;;35.69;20.09;96987.19;2071796;28;20459;-68
2022/08/08 15:27:54;;;;;;;3.07;1.00;;;;;;;35.59;20.11;96998.56;2073034;28;20435;-68
2022/08/08 15:29:15;;;;;;;1.63;0.80;;;;;;;35.45;20.28;96996.97;2072746;28;20459;-68